Time;durP1;ratioP1;P1;durP2;ratioP2;P2;SDS_P1;SDS_P2;PMS_P1;PMS_P2;Temp;Humidity;BMP_temperature;BMP_pressure;BME280_temperature;BME280_humidity;BME280_pressure;Samples;Min_cycle;Max_cycle;Signal;HPM_P1;HPM_P2
2021/12/21 00:00:17;;;;;;;8.15;5.47;;;;;;;-0.01;74.00;97412.59;5015078;28;20057;-75
2021/12/21 00:02:47;;;;;;;11.25;5.63;;;;;;;0.01;73.84;97415.09;5015698;28;20136;-77
2021/12/21 00:05:19;;;;;;;9.88;5.63;;;;;;;0.04;73.88;97410.56;5015840;28;20054;-75
2021/12/21 00:07:52;;;;;;;15.52;5.07;;;;;;;0.04;72.20;97414.88;5015703;28;20073;-75
2021/12/21 00:10:21;;;;;;;8.52;4.78;;;;;;;0.02;72.73;97403.88;5015679;28;20054;-77
2021/12/21 00:13:01;;;;;;;9.70;4.90;;;;;;;0.01;72.95;97405.63;5015426;28;20061;-77
2021/12/21 00:15:43;;;;;;;8.82;4.65;;;;;;;-0.02;72.00;97401.53;5015518;28;20054;-75
2021/12/21 00:18:23;;;;;;;10.80;5.00;;;;;;;-0.08;71.85;97401.91;5027793;28;20050;-76
2021/12/21 00:20:59;;;;;;;11.73;5.25;;;;;;;-0.10;71.76;97395.22;5032292;28;20034;-76
2021/12/21 00:23:31;;;;;;;14.10;5.88;;;;;;;-0.14;71.26;97392.03;5034196;28;20038;-76
2021/12/21 00:26:00;;;;;;;14.00;6.63;;;;;;;-0.17;71.66;97399.09;5027278;28;20050;-76
2021/12/21 00:28:31;;;;;;;11.27;4.90;;;;;;;-0.22;71.57;97404.50;5017261;28;20054;-80
2021/12/21 00:30:59;;;;;;;9.38;4.03;;;;;;;-0.30;71.72;97401.59;5015918;28;20056;-75
2021/12/21 00:33:26;;;;;;;8.80;4.68;;;;;;;-0.32;72.00;97398.31;5015419;28;20544;-74
2021/12/21 00:35:53;;;;;;;11.82;4.47;;;;;;;-0.34;71.83;97390.69;5015152;28;20412;-76
2021/12/21 00:38:21;;;;;;;9.65;4.40;;;;;;;-0.36;71.71;97382.28;5015361;28;20137;-75
2021/12/21 00:40:50;;;;;;;7.32;4.05;;;;;;;-0.38;72.03;97389.25;5015309;28;20455;-76
2021/12/21 00:43:18;;;;;;;7.05;4.32;;;;;;;-0.38;72.03;97383.28;5014832;28;20058;-77
2021/12/21 00:45:45;;;;;;;7.15;4.18;;;;;;;-0.38;71.79;97383.28;5014805;28;20057;-75
2021/12/21 00:48:15;;;;;;;6.80;3.70;;;;;;;-0.39;71.79;97382.47;5014756;28;20052;-77
2021/12/21 00:50:42;;;;;;;9.30;4.82;;;;;;;-0.40;71.80;97380.81;5014696;28;20050;-76
2021/12/21 00:53:10;;;;;;;8.80;3.97;;;;;;;-0.41;72.06;97379.19;5014857;28;20054;-75
2021/12/21 00:55:37;;;;;;;7.47;3.67;;;;;;;-0.38;72.00;97370.47;5015832;28;20049;-78
2021/12/21 00:58:06;;;;;;;7.72;4.15;;;;;;;-0.37;71.96;97369.53;5014751;28;20050;-79
2021/12/21 01:00:34;;;;;;;8.13;4.28;;;;;;;-0.34;71.89;97370.19;5015722;28;20045;-77
2021/12/21 01:03:07;;;;;;;10.90;5.50;;;;;;;-0.27;71.98;97368.06;5015456;28;20088;-77
2021/12/21 01:05:43;;;;;;;5.63;3.78;;;;;;;-0.23;72.28;97366.97;5015770;28;20065;-79
2021/12/21 01:08:15;;;;;;;7.03;4.00;;;;;;;-0.18;72.60;97370.06;5015407;28;20050;-76
2021/12/21 01:11:01;;;;;;;10.05;4.57;;;;;;;-0.16;71.93;97370.78;5014697;28;20054;-81
2021/12/21 01:13:49;;;;;;;12.07;5.82;;;;;;;-0.19;72.13;97370.16;5016194;28;20048;-79
2021/12/21 01:16:28;;;;;;;6.32;4.55;;;;;;;-0.16;72.25;97364.84;5015280;28;20049;-78
2021/12/21 01:21:42;;;;;;;8.90;5.10;;;;;;;-0.15;72.21;97353.66;5012183;28;20061;-77
2021/12/21 01:24:24;;;;;;;9.05;4.40;;;;;;;-0.15;72.25;97359.63;5014418;28;20065;-77
2021/12/21 01:27:03;;;;;;;7.32;4.63;;;;;;;-0.16;71.96;97352.81;5014147;28;20053;-79
2021/12/21 01:29:38;;;;;;;7.05;4.10;;;;;;;-0.17;72.11;97358.06;5014483;28;20527;-77
2021/12/21 01:32:14;;;;;;;8.05;4.93;;;;;;;-0.17;71.50;97355.50;5014472;28;20484;-79
2021/12/21 01:34:51;;;;;;;9.80;5.32;;;;;;;-0.15;72.02;97354.50;5014172;28;20061;-76
2021/12/21 01:37:24;;;;;;;10.63;4.50;;;;;;;-0.14;71.45;97363.81;5013664;28;20053;-77
2021/12/21 01:40:03;;;;;;;8.60;4.65;;;;;;;-0.14;71.49;97352.75;5013988;28;20057;-79
2021/12/21 01:42:49;;;;;;;9.00;5.03;;;;;;;-0.14;71.38;97350.19;5013905;28;20060;-76
2021/12/21 01:50:50;;;;;;;10.07;4.65;;;;;;;-0.18;70.92;97349.53;5014369;28;20046;-79
2021/12/21 01:53:18;;;;;;;6.47;4.05;;;;;;;-0.22;70.65;97345.50;5013801;28;20397;-77
2021/12/21 01:55:46;;;;;;;9.85;5.10;;;;;;;-0.25;71.14;97346.53;5013310;28;20060;-75
2021/12/21 01:58:14;;;;;;;9.52;5.93;;;;;;;-0.27;70.71;97337.31;5013535;28;20431;-78
2021/12/21 02:00:43;;;;;;;9.65;4.80;;;;;;;-0.32;70.85;97331.66;5013726;28;20459;-79
2021/12/21 02:03:11;;;;;;;10.55;5.75;;;;;;;-0.34;71.25;97330.91;5013417;28;20042;-76
2021/12/21 02:05:39;;;;;;;7.95;5.22;;;;;;;-0.33;71.42;97330.84;5013111;28;20587;-76
2021/12/21 02:08:07;;;;;;;8.23;4.75;;;;;;;-0.33;71.15;97327.44;5013267;28;20064;-80
2021/12/21 02:10:34;;;;;;;9.77;4.60;;;;;;;-0.37;71.29;97324.25;5013312;28;20061;-77
2021/12/21 02:13:02;;;;;;;10.13;5.10;;;;;;;-0.42;71.26;97321.13;5013373;28;20480;-79
2021/12/21 02:15:30;;;;;;;7.53;4.55;;;;;;;-0.44;71.39;97322.97;5012832;28;20073;-76
2021/12/21 02:20:46;;;;;;;5.97;4.55;;;;;;;-0.40;71.51;97321.03;5010090;28;20053;-75
2021/12/21 02:23:18;;;;;;;7.20;5.45;;;;;;;-0.37;71.31;97318.28;5012626;28;20061;-75
2021/12/21 02:28:48;;;;;;;8.30;5.50;;;;;;;-0.32;71.59;97316.28;5008689;28;20077;-78
2021/12/21 02:31:17;;;;;;;7.35;4.88;;;;;;;-0.29;71.57;97318.63;5013016;28;20050;-80
2021/12/21 02:33:47;;;;;;;10.73;5.00;;;;;;;-0.29;70.92;97323.75;5012782;28;20049;-80
2021/12/21 02:36:16;;;;;;;10.45;6.20;;;;;;;-0.30;71.57;97325.50;5012418;28;20526;-77
2021/12/21 02:38:44;;;;;;;9.85;6.03;;;;;;;-0.26;71.58;97323.59;5012780;28;20081;-79
2021/12/21 02:41:11;;;;;;;10.43;5.55;;;;;;;-0.26;71.10;97324.41;5013110;28;20049;-78
2021/12/21 02:43:40;;;;;;;9.40;5.13;;;;;;;-0.29;70.80;97322.00;5012658;28;20050;-77
2021/12/21 02:46:07;;;;;;;11.55;6.18;;;;;;;-0.35;70.40;97316.44;5012061;28;20561;-82
2021/12/21 02:48:35;;;;;;;9.63;5.43;;;;;;;-0.39;70.80;97314.97;5012660;28;20058;-79
2021/12/21 02:51:03;;;;;;;9.00;4.38;;;;;;;-0.40;71.23;97314.16;5012647;28;20069;-79
2021/12/21 02:53:32;;;;;;;10.00;5.22;;;;;;;-0.38;71.02;97321.78;5012411;28;20057;-78
2021/12/21 02:55:59;;;;;;;8.55;4.68;;;;;;;-0.35;71.55;97330.09;5012297;28;20050;-75
2021/12/21 02:58:27;;;;;;;8.13;5.30;;;;;;;-0.31;72.06;97321.28;5012650;28;20500;-78
2021/12/21 03:00:55;;;;;;;8.48;4.90;;;;;;;-0.31;70.78;97317.91;5012948;28;20054;-78
2021/12/21 03:03:22;;;;;;;8.50;5.35;;;;;;;-0.37;70.25;97319.13;5012411;28;20104;-78
2021/12/21 03:05:53;;;;;;;9.65;5.28;;;;;;;-0.42;70.60;97316.00;5012102;28;20072;-77
2021/12/21 03:08:23;;;;;;;10.52;5.30;;;;;;;-0.44;71.24;97315.28;5012483;28;20503;-78
2021/12/21 03:11:05;;;;;;;6.10;4.28;;;;;;;-0.45;71.59;97316.22;5011740;28;20049;-77
2021/12/21 03:16:18;;;;;;;7.80;4.93;;;;;;;-0.40;71.38;97318.47;5009814;28;20512;-77
2021/12/21 03:18:46;;;;;;;12.70;5.88;;;;;;;-0.39;71.75;97320.13;5011288;28;20061;-80
2021/12/21 03:21:14;;;;;;;7.50;4.95;;;;;;;-0.35;72.54;97321.56;5012264;28;20523;-74
2021/12/21 03:23:41;;;;;;;10.30;5.50;;;;;;;-0.29;73.53;97323.75;5012124;28;20105;-76
2021/12/21 03:26:11;;;;;;;9.63;5.43;;;;;;;-0.26;73.64;97324.41;5012187;28;20050;-82
2021/12/21 03:28:38;;;;;;;9.13;6.00;;;;;;;-0.26;73.19;97326.16;5012397;28;20056;-76
2021/12/21 03:31:06;;;;;;;12.32;7.30;;;;;;;-0.30;73.38;97314.44;5012306;28;20057;-75
2021/12/21 03:33:34;;;;;;;13.52;6.90;;;;;;;-0.30;74.71;97309.31;5015968;28;20053;-80
2021/12/21 03:36:02;;;;;;;19.00;7.90;;;;;;;-0.26;74.66;97321.00;5020226;28;20057;-75
2021/12/21 03:38:30;;;;;;;8.38;5.72;;;;;;;-0.27;73.92;97303.97;5015547;28;20057;-75
2021/12/21 03:41:04;;;;;;;12.93;6.85;;;;;;;-0.28;73.54;97307.47;5020669;28;20053;-76
2021/12/21 03:43:33;;;;;;;10.75;6.82;;;;;;;-0.29;74.76;97310.94;5029049;28;20050;-78
2021/12/21 03:46:07;;;;;;;11.80;6.70;;;;;;;-0.30;74.64;97314.44;5029394;28;20049;-75
2021/12/21 03:48:36;;;;;;;9.70;6.85;;;;;;;-0.33;74.19;97318.00;5024500;28;20424;-78
2021/12/21 03:51:04;;;;;;;9.32;6.10;;;;;;;-0.38;73.54;97321.78;5017000;28;20053;-77
2021/12/21 03:53:32;;;;;;;10.13;6.28;;;;;;;-0.40;74.23;97319.28;5016464;28;20053;-82
2021/12/21 03:56:16;;;;;;;8.50;5.43;;;;;;;-0.43;72.89;97320.31;5015728;28;20504;-78
2021/12/21 03:58:45;;;;;;;8.95;6.00;;;;;;;-0.50;72.23;97324.19;5016419;28;20422;-78
2021/12/21 04:01:13;;;;;;;11.98;5.90;;;;;;;-0.56;72.46;97316.88;5015864;28;20053;-77
2021/12/21 04:03:40;;;;;;;10.25;6.15;;;;;;;-0.60;73.40;97312.84;5015525;28;20054;-76
2021/12/21 04:06:08;;;;;;;9.70;6.35;;;;;;;-0.58;74.90;97310.19;5015084;28;20045;-76
2021/12/21 04:08:36;;;;;;;11.98;6.50;;;;;;;-0.57;74.29;97317.78;5015515;28;20057;-77
2021/12/21 04:11:04;;;;;;;7.88;6.47;;;;;;;-0.59;74.09;97309.38;5015552;28;20471;-82
2021/12/21 04:13:32;;;;;;;11.27;7.43;;;;;;;-0.56;74.82;97316.06;5015273;28;20042;-77
2021/12/21 04:16:04;;;;;;;12.55;7.00;;;;;;;-0.55;74.46;97315.13;5014657;28;20247;-77
2021/12/21 04:18:35;;;;;;;8.83;6.27;;;;;;;-0.55;74.88;97326.19;5015105;28;20053;-75
2021/12/21 04:21:03;;;;;;;8.25;6.40;;;;;;;-0.58;74.50;97328.94;5015298;28;20275;-75
2021/12/21 04:23:31;;;;;;;9.30;6.20;;;;;;;-0.58;74.78;97325.56;5014971;28;20499;-74
2021/12/21 04:25:59;;;;;;;9.75;5.75;;;;;;;-0.61;73.83;97321.47;5014735;28;20050;-76
2021/12/21 04:28:26;;;;;;;9.07;6.30;;;;;;;-0.68;73.58;97320.19;5015124;28;20053;-77
2021/12/21 04:30:54;;;;;;;11.20;6.22;;;;;;;-0.76;72.64;97322.41;5014931;28;20500;-75
2021/12/21 04:33:23;;;;;;;11.82;5.70;;;;;;;-0.91;71.35;97324.97;5014992;28;20056;-75
2021/12/21 04:35:50;;;;;;;10.05;7.05;;;;;;;-0.96;72.43;97323.59;5014938;28;20072;-77
2021/12/21 04:38:23;;;;;;;11.48;6.30;;;;;;;-0.97;72.96;97335.56;5014939;28;20050;-77
2021/12/21 04:40:57;;;;;;;11.43;6.20;;;;;;;-1.00;72.66;97330.66;5014774;28;20507;-78
2021/12/21 04:43:24;;;;;;;10.30;6.45;;;;;;;-1.01;73.27;97326.44;5014725;28;20050;-75
2021/12/21 04:45:52;;;;;;;13.23;6.85;;;;;;;-1.00;72.73;97335.78;5013638;28;20042;-75
2021/12/21 04:48:20;;;;;;;8.35;6.45;;;;;;;-0.99;72.89;97332.28;5015022;28;20050;-75
2021/12/21 04:50:48;;;;;;;8.43;5.88;;;;;;;-1.02;72.64;97331.66;5015199;28;20219;-85
2021/12/21 04:53:17;;;;;;;13.52;6.72;;;;;;;-1.04;72.77;97337.69;5014711;28;20441;-76
2021/12/21 04:55:44;;;;;;;8.57;5.90;;;;;;;-1.07;71.81;97334.50;5014601;28;20054;-75
2021/12/21 04:58:12;;;;;;;13.02;6.90;;;;;;;-1.14;71.19;97331.44;5014497;28;20049;-75
2021/12/21 05:00:41;;;;;;;13.00;5.93;;;;;;;-1.19;72.04;97330.09;5014589;28;20060;-75
2021/12/21 05:03:10;;;;;;;12.63;6.50;;;;;;;-1.19;72.38;97335.22;5014673;28;20092;-75
2021/12/21 05:05:38;;;;;;;10.32;6.30;;;;;;;-1.17;73.11;97325.72;5014505;28;20162;-74
2021/12/21 05:08:09;;;;;;;7.88;5.68;;;;;;;-1.16;72.10;97335.03;5014596;28;20061;-78
2021/12/21 05:10:45;;;;;;;9.98;6.40;;;;;;;-1.12;73.13;97336.50;5014730;28;20482;-75
2021/12/21 05:13:13;;;;;;;15.75;7.18;;;;;;;-1.06;73.59;97336.13;5014696;28;20053;-77
2021/12/21 05:15:40;;;;;;;10.55;6.55;;;;;;;-1.04;72.90;97329.19;5014230;28;20065;-75
2021/12/21 05:18:08;;;;;;;12.13;6.18;;;;;;;-1.05;73.05;97322.41;5014174;28;20050;-75
2021/12/21 05:20:35;;;;;;;13.60;6.18;;;;;;;-1.07;71.96;97329.38;5014292;28;20053;-77
2021/12/21 05:23:03;;;;;;;8.13;6.10;;;;;;;-1.13;72.29;97325.44;5013966;28;20057;-78
2021/12/21 05:25:32;;;;;;;11.63;5.80;;;;;;;-1.12;72.77;97319.38;5014227;28;20057;-75
2021/12/21 05:28:04;;;;;;;8.73;5.43;;;;;;;-1.13;72.47;97315.19;5013676;28;20045;-75
2021/12/21 05:30:32;;;;;;;9.30;6.45;;;;;;;-1.11;73.01;97322.78;5014196;28;20056;-77
2021/12/21 05:32:59;;;;;;;9.50;5.88;;;;;;;-1.17;72.39;97315.47;5014393;28;20050;-75
2021/12/21 05:35:27;;;;;;;13.30;6.97;;;;;;;-1.17;73.80;97315.47;5014252;28;20089;-75
2021/12/21 05:38:00;;;;;;;9.77;6.88;;;;;;;-1.13;74.80;97314.38;5014022;28;20060;-75
2021/12/21 05:40:33;;;;;;;16.83;7.68;;;;;;;-1.06;75.45;97318.22;5014104;28;20056;-75
2021/12/21 05:43:01;;;;;;;;;;;;;;;-0.99;76.61;97308.41;5015033;28;20460;-75
2021/12/21 05:45:29;;;;;;;12.32;6.75;;;;;;;-1.07;72.55;97303.78;5013932;28;19921;-75
2021/12/21 05:47:56;;;;;;;13.75;8.65;;;;;;;-1.27;70.74;97298.09;5014240;28;20057;-75
2021/12/21 05:50:24;;;;;;;9.32;6.30;;;;;;;-1.45;70.63;97304.28;5014181;28;20045;-77
2021/12/21 05:52:52;;;;;;;18.58;8.32;;;;;;;-1.54;71.71;97307.41;5014903;28;20057;-77
2021/12/21 05:55:21;;;;;;;9.98;6.03;;;;;;;-1.54;72.29;97308.22;5021708;28;20053;-78
2021/12/21 05:57:48;;;;;;;9.93;6.47;;;;;;;-1.51;72.44;97309.75;5022851;28;20054;-78
2021/12/21 06:00:20;;;;;;;17.70;7.97;;;;;;;-1.50;72.56;97306.31;5025717;28;20049;-77
2021/12/21 06:02:47;;;;;;;15.93;8.55;;;;;;;-1.50;71.97;97306.31;5025242;28;20397;-76
2021/12/21 06:05:15;;;;;;;11.98;6.30;;;;;;;-1.46;71.84;97307.78;5013218;28;20046;-78
2021/12/21 06:07:45;;;;;;;8.18;5.30;;;;;;;-1.46;71.48;97307.78;5021475;28;20053;-77
2021/12/21 06:10:13;;;;;;;7.07;5.03;;;;;;;-1.49;71.68;97313.91;4995344;28;20050;-82
2021/12/21 06:12:59;;;;;;;9.43;5.40;;;;;;;-1.53;71.27;97312.44;5004367;28;20507;-77
2021/12/21 06:15:39;;;;;;;9.65;5.80;;;;;;;-1.54;70.89;97317.63;5012799;28;20049;-78
2021/12/21 06:24:10;;;;;;;13.00;6.78;;;;;;;-1.61;71.45;97301.00;5013507;28;20054;-76
2021/12/21 06:26:32;;;;;;;13.88;5.97;;;;;;;-1.60;71.26;97302.63;5013573;28;20060;-78
2021/12/21 06:28:59;;;;;;;9.93;4.80;;;;;;;-1.60;71.26;97298.31;5013919;28;20050;-78
2021/12/21 06:31:29;;;;;;;9.55;4.53;;;;;;;-1.61;70.95;97301.00;5013526;28;20049;-78
2021/12/21 06:33:57;;;;;;;7.63;4.20;;;;;;;-1.62;70.90;97302.69;5013070;28;20507;-76
2021/12/21 06:36:25;;;;;;;7.00;4.53;;;;;;;-1.66;71.07;97294.41;5012705;28;20045;-78
2021/12/21 06:38:53;;;;;;;6.65;4.07;;;;;;;-1.70;70.72;97294.66;5012769;28;20108;-75
2021/12/21 06:41:21;;;;;;;17.27;7.00;;;;;;;-1.74;71.08;97299.13;5011765;28;20050;-75
2021/12/21 06:43:49;;;;;;;8.48;5.10;;;;;;;-1.73;71.40;97300.78;5011942;28;20056;-76
2021/12/21 06:46:40;;;;;;;7.28;4.35;;;;;;;-1.74;71.30;97299.13;5011843;28;20068;-74
2021/12/21 06:51:52;;;;;;;4.95;3.83;;;;;;;-1.74;71.06;97290.63;5012622;28;20054;-75
2021/12/21 06:54:21;;;;;;;6.65;4.43;;;;;;;-1.75;71.22;97291.53;5012402;28;20136;-74
2021/12/21 06:56:49;;;;;;;10.60;4.45;;;;;;;-1.73;71.30;97305.91;5012191;28;20053;-76
2021/12/21 06:59:16;;;;;;;13.73;5.30;;;;;;;-1.70;71.42;97307.47;5012223;28;20053;-76
2021/12/21 07:01:44;;;;;;;7.30;4.72;;;;;;;-1.68;71.71;97297.97;5012357;28;20053;-76
2021/12/21 07:04:14;;;;;;;12.32;5.32;;;;;;;-1.62;71.78;97299.31;5012290;28;20053;-76
2021/12/21 07:06:42;;;;;;;7.68;4.88;;;;;;;-1.59;71.71;97302.53;5011942;28;20050;-76
2021/12/21 07:09:15;;;;;;;11.52;6.68;;;;;;;-1.54;71.69;97297.16;5015740;28;20053;-75
2021/12/21 07:11:45;;;;;;;;;;;;;;;-1.46;71.39;97300.09;5016630;28;20056;-76
2021/12/21 07:19:46;;;;;;;14.70;7.25;;;;;;;-1.39;72.55;97303.13;5016162;28;20409;-75
2021/12/21 07:22:14;;;;;;;12.75;7.95;;;;;;;-1.34;71.31;97307.03;5016440;28;20401;-75
2021/12/21 07:24:42;;;;;;;14.27;9.27;;;;;;;-1.33;71.50;97298.47;5016702;28;20050;-75
2021/12/21 07:27:09;;;;;;;15.70;8.98;;;;;;;-1.30;72.40;97308.50;5016465;28;20046;-78
2021/12/21 07:29:37;;;;;;;21.13;7.85;;;;;;;-1.34;71.13;97307.03;5016157;28;20050;-74
2021/12/21 07:32:05;;;;;;;15.60;9.00;;;;;;;-1.42;70.17;97304.13;5016923;28;20053;-74
2021/12/21 07:34:33;;;;;;;17.45;9.15;;;;;;;-1.45;71.69;97304.28;5026522;28;20535;-74
2021/12/21 07:37:04;;;;;;;16.33;8.63;;;;;;;-1.45;71.05;97311.97;5024657;28;20050;-75
2021/12/21 07:39:32;;;;;;;35.58;8.32;;;;;;;-1.51;70.44;97309.75;5025168;28;20045;-73
2021/12/21 07:42:16;;;;;;;13.20;6.10;;;;;;;-1.57;70.35;97307.59;5018939;28;20050;-75
2021/12/21 07:44:44;;;;;;;13.00;6.85;;;;;;;-1.60;70.43;97308.56;5016453;28;20471;-76
2021/12/21 07:47:11;;;;;;;12.27;5.75;;;;;;;-1.62;70.56;97302.69;5015395;28;20046;-74
2021/12/21 07:49:39;;;;;;;16.23;6.10;;;;;;;-1.59;70.71;97314.53;5016146;28;20390;-73
2021/12/21 07:52:10;;;;;;;7.10;4.75;;;;;;;-1.54;70.79;97312.50;5015701;28;20050;-74
2021/12/21 07:54:38;;;;;;;10.30;6.60;;;;;;;-1.51;70.67;97317.44;5015623;28;20046;-73
2021/12/21 07:57:06;;;;;;;8.93;5.55;;;;;;;-1.48;70.91;97304.47;5015063;28;20049;-74
2021/12/21 07:59:35;;;;;;;9.13;5.35;;;;;;;-1.44;70.64;97316.19;5015325;28;20427;-74
2021/12/21 08:02:03;;;;;;;11.85;6.43;;;;;;;-1.37;71.56;97320.03;5015677;28;20061;-73
2021/12/21 08:04:33;;;;;;;9.25;5.55;;;;;;;-1.30;72.34;97313.63;5015724;28;20481;-73
2021/12/21 08:07:08;;;;;;;9.90;4.10;;;;;;;-1.25;71.62;97315.91;5015623;28;20046;-74
2021/12/21 08:09:40;;;;;;;5.68;4.32;;;;;;;-1.25;70.78;97315.91;5016356;28;20062;-74
2021/12/21 08:12:14;;;;;;;5.80;3.80;;;;;;;-1.27;70.72;97312.63;5015942;28;20065;-74
2021/12/21 08:14:42;;;;;;;9.82;4.30;;;;;;;-1.30;70.60;97321.31;5015349;28;20049;-75
2021/12/21 08:17:09;;;;;;;10.77;3.85;;;;;;;-1.29;70.71;97315.28;5014828;28;20507;-74
2021/12/21 08:19:40;;;;;;;8.00;3.80;;;;;;;-1.28;70.42;97324.59;5014229;28;20554;-75
2021/12/21 08:22:07;;;;;;;7.25;4.28;;;;;;;-1.25;70.89;97321.03;5015387;28;20486;-74
2021/12/21 08:24:36;;;;;;;7.45;4.50;;;;;;;-1.16;72.05;97317.09;5015205;28;20069;-74
2021/12/21 08:27:04;;;;;;;8.57;5.38;;;;;;;-1.09;71.83;97323.53;5015557;28;20051;-74
2021/12/21 08:29:32;;;;;;;12.63;5.80;;;;;;;-1.04;71.50;97324.06;5015233;28;20472;-77
2021/12/21 08:32:00;;;;;;;8.75;5.95;;;;;;;-1.00;71.60;97330.66;5015074;28;20046;-75
2021/12/21 08:34:27;;;;;;;9.23;4.88;;;;;;;-0.99;70.55;97316.09;5015254;28;20054;-74
2021/12/21 08:36:55;;;;;;;11.88;5.68;;;;;;;-1.04;70.50;97329.19;5014734;28;20050;-76
2021/12/21 08:39:23;;;;;;;8.07;4.13;;;;;;;-1.05;70.72;97332.66;5014861;28;20078;-74
2021/12/21 08:41:57;;;;;;;9.07;4.38;;;;;;;-1.02;70.83;97326.53;5014760;28;20061;-76
2021/12/21 08:44:25;;;;;;;11.68;4.18;;;;;;;-0.97;70.77;97325.34;5014794;28;20073;-74
2021/12/21 08:46:53;;;;;;;8.00;3.65;;;;;;;-0.93;70.58;97326.81;5014560;28;20057;-75
2021/12/21 08:49:21;;;;;;;10.70;4.32;;;;;;;-0.89;70.49;97323.13;5015135;28;20399;-75
2021/12/21 08:51:48;;;;;;;9.52;4.55;;;;;;;-0.83;71.25;97327.09;5014819;28;20061;-75
2021/12/21 08:54:16;;;;;;;7.47;4.53;;;;;;;-0.78;71.00;97325.06;5014720;28;20061;-74
2021/12/21 08:56:45;;;;;;;7.93;5.05;;;;;;;-0.72;71.99;97322.13;5014449;28;20046;-76
2021/12/21 08:59:15;;;;;;;15.30;7.43;;;;;;;-0.59;73.76;97324.75;5014603;28;20057;-75
2021/12/21 09:01:42;;;;;;;19.80;9.25;;;;;;;-0.50;73.83;97326.75;5014413;28;20050;-76
2021/12/21 09:04:10;;;;;;;20.10;8.98;;;;;;;-0.43;74.32;97329.75;5014413;28;20522;-75
2021/12/21 09:06:38;;;;;;;16.35;9.63;;;;;;;-0.40;72.41;97326.16;5013926;28;20046;-75
2021/12/21 09:09:07;;;;;;;16.58;8.75;;;;;;;-0.45;71.45;97326.47;5014027;28;20057;-75
2021/12/21 09:11:37;;;;;;;14.52;6.63;;;;;;;-0.52;71.04;97326.03;5014066;28;20061;-75
2021/12/21 09:14:05;;;;;;;12.18;6.07;;;;;;;-0.53;71.30;97326.09;5014142;28;20057;-74
2021/12/21 09:16:35;;;;;;;8.85;4.22;;;;;;;-0.54;70.97;97325.28;5013383;28;20049;-75
2021/12/21 09:19:03;;;;;;;6.68;4.30;;;;;;;-0.47;72.06;97334.22;5014214;28;20053;-74
2021/12/21 09:21:31;;;;;;;9.77;6.10;;;;;;;-0.37;73.85;97336.22;5014099;28;20046;-74
2021/12/21 09:23:58;;;;;;;12.55;7.93;;;;;;;-0.28;74.45;97340.81;5013801;28;20061;-74
2021/12/21 09:26:28;;;;;;;11.98;8.60;;;;;;;-0.18;74.87;97343.59;5013494;28;20057;-74
2021/12/21 09:28:56;;;;;;;13.15;6.32;;;;;;;-0.12;73.73;97345.78;5013875;28;20050;-74
2021/12/21 09:31:24;;;;;;;8.35;5.35;;;;;;;-0.09;72.90;97336.16;5013777;28;20061;-74
2021/12/21 09:33:53;;;;;;;9.20;4.85;;;;;;;-0.08;72.92;97334.41;5013916;28;20117;-73
2021/12/21 09:36:20;;;;;;;6.35;3.83;;;;;;;-0.05;72.70;97334.19;5013276;28;20050;-74
2021/12/21 09:38:48;;;;;;;5.93;3.53;;;;;;;-0.03;72.49;97329.81;5013699;28;20046;-74
2021/12/21 09:41:18;;;;;;;5.60;4.45;;;;;;;0.01;72.24;97327.88;5013699;28;20060;-74
2021/12/21 09:43:46;;;;;;;7.00;4.35;;;;;;;0.04;72.38;97331.03;5013706;28;20116;-74
2021/12/21 09:46:15;;;;;;;5.97;3.95;;;;;;;0.11;72.60;97323.78;5012994;28;20492;-75
2021/12/21 09:48:44;;;;;;;7.97;4.50;;;;;;;0.17;72.05;97318.25;5013488;28;20045;-75
2021/12/21 09:51:13;;;;;;;8.93;4.00;;;;;;;0.26;72.34;97316.84;5013660;28;20057;-74
2021/12/21 09:53:40;;;;;;;7.30;4.13;;;;;;;0.34;73.06;97317.97;5013242;28;20061;-74
2021/12/21 09:56:08;;;;;;;12.85;3.65;;;;;;;0.40;71.76;97309.88;5012806;28;20054;-74
2021/12/21 09:58:36;;;;;;;4.88;3.63;;;;;;;0.44;70.78;97307.94;5013427;28;20061;-75
2021/12/21 10:01:05;;;;;;;4.75;3.80;;;;;;;0.49;71.77;97310.22;5013388;28;20058;-74
2021/12/21 10:03:32;;;;;;;7.05;4.20;;;;;;;0.56;72.27;97314.00;5013263;28;20054;-75
2021/12/21 10:06:06;;;;;;;4.55;3.63;;;;;;;0.64;72.17;97311.75;5012729;28;20050;-74
2021/12/21 10:08:35;;;;;;;6.68;4.50;;;;;;;0.74;73.72;97312.75;5013039;28;20053;-76
2021/12/21 10:11:04;;;;;;;8.27;6.50;;;;;;;0.83;74.26;97316.47;5013172;28;20401;-74
2021/12/21 10:13:34;;;;;;;10.43;5.85;;;;;;;0.92;73.59;97315.88;5013011;28;20459;-75
2021/12/21 10:16:05;;;;;;;9.40;6.30;;;;;;;0.99;74.29;97316.28;5012558;28;20459;-75
2021/12/21 10:18:35;;;;;;;14.35;7.32;;;;;;;1.06;74.71;97320.06;5013165;28;20054;-76
2021/12/21 10:21:05;;;;;;;8.35;6.40;;;;;;;1.14;74.95;97317.78;5012877;28;20081;-75
2021/12/21 10:23:35;;;;;;;9.35;5.53;;;;;;;1.22;74.51;97307.81;5012874;28;20053;-76
2021/12/21 10:26:05;;;;;;;9.52;6.05;;;;;;;1.31;74.55;97308.94;5013037;28;20050;-75
2021/12/21 10:28:36;;;;;;;9.13;4.50;;;;;;;1.37;72.85;97305.91;5012881;28;20057;-75
2021/12/21 10:31:06;;;;;;;7.20;4.40;;;;;;;1.43;72.42;97307.25;5012981;28;20046;-76
2021/12/21 10:33:35;;;;;;;6.55;4.10;;;;;;;1.50;72.94;97299.91;5012826;28;20076;-75
2021/12/21 10:36:05;;;;;;;3.78;3.13;;;;;;;1.53;70.54;97300.53;5012353;28;20108;-75
2021/12/21 10:38:36;;;;;;;6.10;2.83;;;;;;;1.56;69.41;97299.50;5012738;28;20058;-74
2021/12/21 10:41:10;;;;;;;4.20;2.47;;;;;;;1.61;67.66;97297.41;5012782;28;20054;-75
2021/12/21 10:43:39;;;;;;;4.68;2.72;;;;;;;1.70;68.36;97295.94;5012025;28;20057;-75
2021/12/21 10:46:06;;;;;;;5.20;2.72;;;;;;;1.72;67.04;97294.06;5012188;28;20120;-74
2021/12/21 10:48:36;;;;;;;3.88;2.35;;;;;;;1.77;66.99;97297.13;5012561;28;20053;-75
2021/12/21 10:51:06;;;;;;;3.45;2.60;;;;;;;1.85;66.45;97284.53;5012874;28;20049;-75
2021/12/21 10:53:37;;;;;;;3.88;2.63;;;;;;;1.92;65.73;97290.88;5012983;28;20422;-75
2021/12/21 10:56:08;;;;;;;2.92;2.30;;;;;;;1.94;63.89;97288.19;5012495;28;20049;-76
2021/12/21 10:58:39;;;;;;;2.95;2.30;;;;;;;1.90;63.21;97292.75;5013277;28;20042;-74
2021/12/21 11:01:09;;;;;;;2.40;2.20;;;;;;;1.90;63.80;97292.75;5014196;28;20064;-75
2021/12/21 11:03:45;;;;;;;4.22;2.92;;;;;;;1.94;64.06;97289.00;5013174;28;20508;-75
2021/12/21 11:06:16;;;;;;;4.50;2.38;;;;;;;1.99;63.48;97292.09;5012571;28;20567;-75
2021/12/21 11:08:47;;;;;;;4.35;2.40;;;;;;;2.02;62.97;97286.72;5012667;28;20071;-75
2021/12/21 11:11:26;;;;;;;4.68;2.53;;;;;;;2.08;62.52;97284.63;5012767;28;20064;-76
2021/12/21 11:14:08;;;;;;;7.47;2.80;;;;;;;2.18;62.26;97280.44;5012917;28;20050;-74
2021/12/21 11:16:39;;;;;;;3.05;2.42;;;;;;;2.28;63.54;97273.69;5012369;28;20057;-74
2021/12/21 11:19:08;;;;;;;4.28;2.30;;;;;;;2.41;63.21;97271.84;5013188;28;20050;-75
2021/12/21 11:21:36;;;;;;;3.10;2.38;;;;;;;2.52;62.95;97262.50;5012787;28;20054;-75
2021/12/21 11:24:07;;;;;;;6.78;2.22;;;;;;;2.56;61.46;97258.75;5012829;28;20054;-75
2021/12/21 11:26:36;;;;;;;33.17;3.70;;;;;;;2.56;61.24;97259.59;5012972;28;20061;-75
2021/12/21 11:29:07;;;;;;;3.90;2.38;;;;;;;2.60;61.36;97258.44;5013945;28;20049;-76
2021/12/21 11:31:38;;;;;;;4.38;2.45;;;;;;;2.66;61.13;97246.81;5019409;28;20065;-75
2021/12/21 11:34:08;;;;;;;4.45;2.53;;;;;;;2.76;62.78;97250.34;5022824;28;20060;-75
2021/12/21 11:39:23;;;;;;;2.72;2.20;;;;;;;2.94;61.12;97239.56;5017791;28;20050;-76
2021/12/21 11:41:51;;;;;;;3.00;2.40;;;;;;;3.02;62.98;97240.63;5025459;28;20053;-74
2021/12/21 11:44:26;;;;;;;9.25;4.28;;;;;;;3.14;60.87;97238.03;5022522;28;20086;-75
2021/12/21 11:46:56;;;;;;;3.85;2.67;;;;;;;3.22;61.81;97236.50;5019384;28;20056;-74
2021/12/21 11:49:33;;;;;;;5.95;2.83;;;;;;;3.26;60.45;97230.16;5018723;28;20102;-75
2021/12/21 11:52:13;;;;;;;4.47;3.08;;;;;;;3.34;60.06;97231.31;5017209;28;20046;-73
2021/12/21 11:54:49;;;;;;;4.53;2.38;;;;;;;3.41;61.06;97228.13;5015241;28;20050;-74
2021/12/21 11:57:18;;;;;;;4.15;2.55;;;;;;;3.46;60.61;97222.63;5015980;28;20050;-74
2021/12/21 11:59:46;;;;;;;4.30;2.88;;;;;;;3.51;61.97;97228.22;5016561;28;20049;-74
2021/12/21 12:02:14;;;;;;;2.92;2.45;;;;;;;3.50;60.03;97222.25;5016205;28;20053;-74
2021/12/21 12:04:41;;;;;;;3.42;2.15;;;;;;;3.47;59.67;97224.22;5015743;28;20057;-74
2021/12/21 12:07:18;;;;;;;4.88;2.47;;;;;;;3.48;58.13;97220.72;5015342;28;20050;-74
2021/12/21 12:09:47;;;;;;;4.20;2.20;;;;;;;3.52;58.72;97224.72;5016111;28;20061;-74
2021/12/21 12:12:17;;;;;;;2.85;2.30;;;;;;;3.51;58.52;97217.91;5015970;28;20054;-74
2021/12/21 12:14:47;;;;;;;2.97;2.63;;;;;;;3.56;59.83;97217.53;5015399;28;20054;-74
2021/12/21 12:17:16;;;;;;;3.60;2.13;;;;;;;3.66;57.98;97224.41;5015346;28;20050;-75
2021/12/21 12:19:53;;;;;;;2.40;2.13;;;;;;;3.75;57.46;97220.28;5015777;28;20124;-74